MKJS 180700Z 10005KT 9999 FEW022 24/21 Q1017
MKJP 180700Z 35005KT 9999 FEW024 SCT070 26/21 Q1016
MWCR 180300Z 07009KT 9999 FEW025 25/23 Q1020
MWCB 180000Z 09004KT 9999 FEW020 26/23 Q1019